Time;durP1;ratioP1;P1;durP2;ratioP2;P2;SDS_P1;SDS_P2;PMS_P1;PMS_P2;Temp;Humidity;BMP_temperature;BMP_pressure;BME280_temperature;BME280_humidity;BME280_pressure;Samples;Min_cycle;Max_cycle;Signal;HPM_P1;HPM_P2
2023/04/15 00:00:53;;;;;;;7.57;3.22;;;;;;;4.47;59.48;99088.94;10360889;28;20498;-60
2023/04/15 00:05:55;;;;;;;6.78;3.30;;;;;;;4.43;59.48;99093.41;10340407;28;20107;-60
2023/04/15 00:11:01;;;;;;;13.07;3.20;;;;;;;4.41;59.60;99094.44;10342184;28;20053;-60
2023/04/15 00:16:05;;;;;;;8.60;3.38;;;;;;;4.35;59.85;99092.13;10343464;28;20045;-60
2023/04/15 00:21:07;;;;;;;8.70;3.25;;;;;;;4.33;59.87;99094.78;10348867;28;20049;-60
2023/04/15 00:26:09;;;;;;;9.57;3.67;;;;;;;4.28;60.05;99083.81;10340729;28;20055;-60
2023/04/15 00:31:11;;;;;;;9.93;3.30;;;;;;;4.30;59.95;99082.00;10345976;28;20038;-60
2023/04/15 00:36:14;;;;;;;6.75;3.13;;;;;;;4.20;60.08;99088.53;10334827;28;20044;-60
2023/04/15 00:41:18;;;;;;;10.50;3.20;;;;;;;4.10;60.05;99083.84;10344416;28;20050;-60
2023/04/15 00:46:20;;;;;;;9.02;3.05;;;;;;;4.02;60.18;99081.63;10336608;28;20042;-60
2023/04/15 00:51:23;;;;;;;7.38;3.13;;;;;;;4.04;60.04;99084.13;10347710;28;20238;-59
2023/04/15 00:56:27;;;;;;;7.93;3.50;;;;;;;3.97;60.17;99080.97;10338825;28;20064;-60
2023/04/15 01:01:30;;;;;;;8.70;3.17;;;;;;;3.85;60.34;99074.63;10338282;28;20057;-60
2023/04/15 01:06:32;;;;;;;6.57;3.22;;;;;;;3.71;60.49;99086.47;10333626;28;20120;-60
2023/04/15 01:11:34;;;;;;;10.02;3.40;;;;;;;3.54;60.91;99089.81;10338649;28;20081;-60
2023/04/15 01:16:38;;;;;;;6.15;2.80;;;;;;;3.62;60.74;99071.41;10341928;28;20485;-60
2023/04/15 01:21:40;;;;;;;6.90;2.75;;;;;;;3.56;60.81;99077.66;10338359;28;20502;-60
2023/04/15 01:26:44;;;;;;;10.73;3.28;;;;;;;3.58;60.67;99081.03;10343707;28;20056;-60
2023/04/15 01:31:53;;;;;;;8.23;2.88;;;;;;;3.53;60.75;99077.81;10338309;28;20034;-60
2023/04/15 01:36:55;;;;;;;7.72;3.30;;;;;;;3.52;60.71;99083.88;10342909;28;20046;-60
2023/04/15 01:41:57;;;;;;;10.15;3.00;;;;;;;3.41;60.90;99080.09;10341051;28;20053;-60
2023/04/15 01:46:59;;;;;;;7.78;3.30;;;;;;;3.34;60.81;99082.13;10362042;28;20119;-60
2023/04/15 01:52:01;;;;;;;11.40;3.33;;;;;;;3.17;60.76;99084.63;10342215;28;20096;-60
2023/04/15 01:57:04;;;;;;;8.82;2.80;;;;;;;3.01;61.53;99086.16;10360541;28;20136;-60
2023/04/15 02:02:06;;;;;;;6.82;2.90;;;;;;;3.13;61.36;99085.63;10340701;28;20046;-60
2023/04/15 02:07:07;;;;;;;10.40;3.00;;;;;;;3.23;61.19;99086.09;10345506;28;20081;-60
2023/04/15 02:12:09;;;;;;;8.85;3.40;;;;;;;3.14;61.39;99083.88;10349151;28;20049;-60
2023/04/15 02:17:11;;;;;;;8.15;3.60;;;;;;;2.95;61.21;99089.84;10351400;28;20494;-60
2023/04/15 02:22:17;;;;;;;8.20;2.97;;;;;;;2.93;61.40;99096.81;10350232;28;20041;-60
2023/04/15 02:27:21;;;;;;;6.78;2.92;;;;;;;2.95;61.32;99092.41;10351255;28;20050;-60
2023/04/15 02:32:24;;;;;;;8.20;3.17;;;;;;;2.96;61.23;99090.69;10357419;28;20042;-60
2023/04/15 02:37:29;;;;;;;6.75;2.97;;;;;;;2.88;61.41;99090.16;10358847;28;20038;-60
2023/04/15 02:42:32;;;;;;;9.05;2.95;;;;;;;2.90;61.48;99098.69;10352850;28;20457;-60
2023/04/15 02:47:35;;;;;;;8.70;2.88;;;;;;;2.86;61.49;99094.56;10351946;28;20042;-60
2023/04/15 02:52:40;;;;;;;6.18;2.85;;;;;;;2.85;61.34;99098.03;10349334;28;20045;-60
2023/04/15 02:57:42;;;;;;;6.70;2.75;;;;;;;2.77;61.34;99106.09;10357070;28;20053;-60
2023/04/15 03:02:45;;;;;;;8.60;2.95;;;;;;;2.71;61.34;99111.53;10330861;28;20046;-60
2023/04/15 03:07:47;;;;;;;6.43;2.97;;;;;;;2.66;61.53;99110.84;10341688;28;20049;-60
2023/04/15 03:12:49;;;;;;;7.72;2.92;;;;;;;2.64;61.49;99106.69;10344680;28;20542;-60
2023/04/15 03:17:53;;;;;;;10.25;2.92;;;;;;;2.59;61.39;99109.44;10345583;28;20576;-61
2023/04/15 03:22:55;;;;;;;7.70;3.08;;;;;;;2.47;61.73;99101.34;10349243;28;20054;-60
2023/04/15 03:27:59;;;;;;;8.07;3.17;;;;;;;2.44;61.92;99106.66;10343842;28;20434;-61
2023/04/15 03:33:00;;;;;;;8.57;3.05;;;;;;;2.44;61.93;99098.91;10339543;28;20498;-60
2023/04/15 03:38:03;;;;;;;10.35;2.80;;;;;;;2.43;61.92;99100.63;10348917;28;20140;-61
2023/04/15 03:43:05;;;;;;;7.32;3.15;;;;;;;2.43;61.69;99104.94;10342003;28;20053;-60
2023/04/15 03:48:07;;;;;;;6.93;3.42;;;;;;;2.26;61.84;99108.19;10344634;28;20105;-61
2023/04/15 03:53:21;;;;;;;6.30;2.75;;;;;;;2.12;62.25;99100.16;10342577;28;20589;-61
2023/04/15 03:58:22;;;;;;;10.38;3.30;;;;;;;2.19;62.15;99112.75;10339769;28;20069;-61
2023/04/15 04:03:24;;;;;;;7.63;2.85;;;;;;;2.24;62.17;99104.84;10347356;28;20041;-60
2023/04/15 04:08:26;;;;;;;6.88;2.88;;;;;;;2.31;61.89;99106.28;10339503;28;20510;-61
2023/04/15 04:13:28;;;;;;;7.15;3.58;;;;;;;2.32;61.75;99102.78;10342007;28;20296;-60
2023/04/15 04:18:31;;;;;;;8.40;2.78;;;;;;;2.22;61.78;99099.75;10340828;28;20061;-61
2023/04/15 04:23:33;;;;;;;7.70;3.20;;;;;;;2.21;61.85;99104.97;10340635;28;20132;-60
2023/04/15 04:28:35;;;;;;;9.20;3.22;;;;;;;2.25;61.70;99103.94;10332445;28;20501;-60
2023/04/15 04:33:37;;;;;;;7.55;3.22;;;;;;;2.30;61.73;99103.78;10339951;28;20338;-60
2023/04/15 04:38:39;;;;;;;6.43;2.80;;;;;;;2.30;61.67;99104.59;10341910;28;20046;-61
2023/04/15 04:43:40;;;;;;;7.65;3.47;;;;;;;2.34;61.75;99088.09;10343826;28;20053;-60
2023/04/15 04:48:42;;;;;;;11.13;3.55;;;;;;;2.33;61.45;99104.47;10342979;28;20050;-61
2023/04/15 04:53:47;;;;;;;8.75;3.75;;;;;;;1.98;61.65;99108.44;10335748;28;20053;-60
2023/04/15 04:58:48;;;;;;;5.25;2.90;;;;;;;2.00;62.09;99105.78;10346161;28;20514;-61
2023/04/15 05:03:50;;;;;;;5.80;3.25;;;;;;;2.29;61.84;99107.25;10339899;28;20056;-61
2023/04/15 05:08:52;;;;;;;7.90;3.42;;;;;;;2.38;61.16;99117.22;10339303;28;20422;-61
2023/04/15 05:13:55;;;;;;;5.75;3.00;;;;;;;2.37;61.34;99118.94;10335857;28;20041;-61
2023/04/15 05:18:56;;;;;;;6.68;3.42;;;;;;;2.49;61.18;99118.44;10342993;28;20392;-61
2023/04/15 05:23:58;;;;;;;6.88;3.55;;;;;;;2.50;61.09;99130.44;10338669;28;21201;-61
2023/04/15 05:29:00;;;;;;;9.68;4.13;;;;;;;2.33;61.18;99140.59;10341734;28;20490;-61
2023/04/15 05:34:04;;;;;;;7.95;2.90;;;;;;;2.42;61.36;99129.91;10361613;28;20030;-61
2023/04/15 05:39:06;;;;;;;8.48;3.63;;;;;;;2.54;61.23;99131.19;10338846;28;20046;-61
2023/04/15 05:44:07;;;;;;;7.15;3.40;;;;;;;2.65;60.95;99142.75;10352834;28;20449;-61
2023/04/15 05:49:09;;;;;;;6.50;3.63;;;;;;;2.82;60.90;99144.66;10362171;28;20049;-61
2023/04/15 05:54:11;;;;;;;7.53;3.30;;;;;;;3.11;60.66;99146.03;10351716;28;20458;-61
2023/04/15 05:59:13;;;;;;;7.57;3.55;;;;;;;3.31;60.21;99148.59;10358147;28;20049;-61
2023/04/15 06:04:15;;;;;;;8.18;3.20;;;;;;;3.51;59.96;99153.75;10331905;28;20061;-61
2023/04/15 06:09:17;;;;;;;6.07;3.05;;;;;;;3.57;59.66;99153.47;10323327;28;20053;-61
2023/04/15 06:14:19;;;;;;;7.55;2.88;;;;;;;3.58;59.83;99149.97;10337208;28;20041;-61
2023/04/15 06:19:21;;;;;;;6.05;3.00;;;;;;;3.72;59.60;99156.22;10336300;28;20045;-61
2023/04/15 06:24:23;;;;;;;5.80;2.97;;;;;;;3.83;59.50;99160.94;10338499;28;20041;-61
2023/04/15 06:29:25;;;;;;;8.10;3.08;;;;;;;4.01;59.56;99154.09;10340285;28;20038;-62
2023/04/15 06:34:26;;;;;;;7.20;3.03;;;;;;;4.11;59.23;99153.63;10339177;28;20047;-62
2023/04/15 06:39:28;;;;;;;5.25;3.10;;;;;;;4.25;59.12;99158.19;10339661;28;20054;-61
2023/04/15 06:44:30;;;;;;;8.65;3.53;;;;;;;4.53;58.67;99162.00;10339395;28;20042;-62
2023/04/15 06:49:34;;;;;;;5.88;2.90;;;;;;;4.50;58.55;99169.91;10339985;28;20411;-61
2023/04/15 06:54:36;;;;;;;6.75;3.03;;;;;;;4.37;58.85;99181.72;10335109;28;20053;-61
2023/04/15 06:59:38;;;;;;;6.90;3.30;;;;;;;4.72;58.48;99176.66;10346260;28;20056;-62
2023/04/15 07:04:40;;;;;;;6.78;3.40;;;;;;;5.37;57.41;99182.84;10344472;28;20069;-61
2023/04/15 07:09:42;;;;;;;8.38;3.80;;;;;;;5.39;57.17;99186.19;10344582;28;20041;-61
2023/04/15 07:14:44;;;;;;;6.78;3.60;;;;;;;5.43;57.27;99181.72;10348032;28;20050;-61
2023/04/15 07:19:46;;;;;;;12.95;3.88;;;;;;;5.91;56.64;99174.00;10343343;28;20042;-61
2023/04/15 07:24:47;;;;;;;6.88;3.72;;;;;;;6.16;56.19;99169.19;10343503;28;20045;-61
2023/04/15 07:29:50;;;;;;;8.82;4.15;;;;;;;6.33;55.77;99165.69;10343251;28;20057;-61
2023/04/15 07:34:52;;;;;;;10.43;4.35;;;;;;;6.34;56.05;99167.38;10349639;28;21100;-61
2023/04/15 07:39:54;;;;;;;14.48;5.18;;;;;;;6.96;55.74;99169.88;10346800;28;20518;-61
2023/04/15 07:44:56;;;;;;;7.50;3.95;;;;;;;7.56;54.57;99168.09;10352431;28;20041;-61
2023/04/15 07:49:59;;;;;;;6.47;3.72;;;;;;;8.23;53.86;99170.06;10358306;28;20085;-61
2023/04/15 07:55:01;;;;;;;9.10;4.28;;;;;;;9.22;52.10;99167.94;10349332;28;20298;-61
2023/04/15 08:00:04;;;;;;;8.23;3.60;;;;;;;9.71;50.86;99162.09;10340782;28;20499;-62
2023/04/15 08:05:13;;;;;;;8.33;4.10;;;;;;;10.10;50.23;99159.31;10337515;28;20525;-61
2023/04/15 08:10:15;;;;;;;11.27;4.10;;;;;;;10.25;49.73;99158.25;10342109;28;20054;-62
2023/04/15 08:15:17;;;;;;;8.57;4.25;;;;;;;10.55;49.04;99157.81;10340865;28;20041;-62
2023/04/15 08:20:19;;;;;;;9.52;3.92;;;;;;;10.93;48.24;99155.91;10335402;28;20042;-61
2023/04/15 08:25:21;;;;;;;8.35;3.70;;;;;;;11.51;47.69;99155.03;10343344;28;20046;-62
2023/04/15 08:30:23;;;;;;;10.43;4.65;;;;;;;11.82;46.43;99160.44;10346359;28;20046;-62
2023/04/15 08:35:25;;;;;;;8.70;4.10;;;;;;;12.18;45.69;99155.91;10341098;28;20049;-62
2023/04/15 08:40:34;;;;;;;7.55;4.00;;;;;;;12.74;44.77;99150.47;10343511;28;20042;-62
2023/04/15 08:45:38;;;;;;;7.13;3.63;;;;;;;12.98;44.50;99152.06;10357777;28;20574;-62
2023/04/15 08:51:18;;;;;;;8.60;4.68;;;;;;;13.13;44.67;99156.06;10537021;27;20588;-62
2023/04/15 08:56:23;;;;;;;9.40;4.18;;;;;;;12.83;44.17;99160.22;10511390;28;20039;-62
2023/04/15 09:01:26;;;;;;;8.30;4.03;;;;;;;12.73;43.74;99161.94;10508082;28;20505;-62
2023/04/15 09:06:27;;;;;;;8.70;4.35;;;;;;;12.73;43.35;99155.84;10505572;28;20044;-62
2023/04/15 09:11:30;;;;;;;6.60;3.67;;;;;;;13.51;42.02;99151.13;10509801;28;20044;-62
2023/04/15 09:16:55;;;;;;;9.40;4.03;;;;;;;14.57;40.33;99148.81;10511692;28;20131;-62
2023/04/15 09:21:58;;;;;;;6.53;3.40;;;;;;;15.49;39.62;99152.72;10507540;28;20432;-62
2023/04/15 09:27:01;;;;;;;7.20;3.22;;;;;;;15.58;39.24;99146.63;10505281;28;20607;-62
2023/04/15 09:32:10;;;;;;;6.90;2.78;;;;;;;15.32;37.68;99135.00;10519305;28;20580;-62
2023/04/15 09:37:14;;;;;;;6.07;2.85;;;;;;;15.02;38.80;99149.13;10502122;28;20051;-62
2023/04/15 09:42:32;;;;;;;7.50;2.80;;;;;;;14.50;38.81;99160.84;10489368;28;20327;-62
2023/04/15 09:47:34;;;;;;;7.40;2.95;;;;;;;14.38;38.50;99172.41;10522422;28;20066;-62
2023/04/15 09:52:44;;;;;;;5.15;2.58;;;;;;;13.93;36.23;99167.66;10497193;28;20093;-60
2023/04/15 09:57:46;;;;;;;6.43;1.60;;;;;;;14.19;36.18;99174.97;10530942;28;20106;-60
2023/04/15 10:02:48;;;;;;;5.97;1.60;;;;;;;14.24;35.61;99178.06;10470882;28;20139;-60
2023/04/15 10:07:50;;;;;;;3.35;1.38;;;;;;;14.28;34.96;99189.97;10474919;28;20049;-60
2023/04/15 10:12:54;;;;;;;3.42;1.33;;;;;;;14.52;33.12;99187.03;10476005;28;20499;-62
2023/04/15 10:17:59;;;;;;;3.35;1.30;;;;;;;14.34;32.04;99192.06;10477570;28;20050;-62
2023/04/15 10:23:01;;;;;;;2.95;1.20;;;;;;;14.17;32.39;99192.69;10473646;28;20567;-62
2023/04/15 10:28:05;;;;;;;3.05;1.15;;;;;;;14.17;32.99;99181.31;10477355;28;20048;-62
2023/04/15 10:33:08;;;;;;;4.00;1.40;;;;;;;13.52;33.86;99187.75;10480876;28;20047;-62
2023/04/15 10:38:32;;;;;;;3.45;1.38;;;;;;;13.61;33.66;99194.03;10457814;28;20304;-62
2023/04/15 10:43:36;;;;;;;2.95;1.20;;;;;;;13.85;34.47;99201.66;10474062;28;20045;-62
2023/04/15 10:48:45;;;;;;;1.83;1.10;;;;;;;13.82;35.02;99213.25;10476096;28;20107;-61
2023/04/15 10:53:48;;;;;;;3.40;1.30;;;;;;;14.13;35.44;99211.47;10474061;28;20158;-60
2023/04/15 10:58:50;;;;;;;2.50;1.20;;;;;;;14.21;35.92;99223.00;10467195;28;20040;-60
2023/04/15 11:03:54;;;;;;;3.33;1.17;;;;;;;14.23;36.11;99228.97;10464530;28;20432;-59
2023/04/15 11:09:01;;;;;;;4.13;1.25;;;;;;;14.44;36.25;99232.41;10472799;28;20136;-60
2023/04/15 11:14:03;;;;;;;1.30;1.05;;;;;;;14.66;35.76;99248.97;10486000;28;20825;-60
2023/04/15 11:19:05;;;;;;;3.22;1.20;;;;;;;14.81;35.94;99251.09;10467504;28;20817;-59
2023/04/15 11:24:07;;;;;;;2.97;1.35;;;;;;;14.74;36.28;99262.28;10465591;28;20044;-60
2023/04/15 11:29:16;;;;;;;2.08;1.40;;;;;;;15.05;36.13;99263.91;10460429;28;20052;-60
2023/04/15 11:34:24;;;;;;;2.85;1.30;;;;;;;14.99;36.67;99264.44;10467959;28;20044;-59
2023/04/15 11:39:28;;;;;;;2.83;1.50;;;;;;;15.23;36.09;99264.88;10454564;28;20052;-61
2023/04/15 11:44:30;;;;;;;2.83;1.50;;;;;;;15.10;36.49;99270.41;10464630;28;20396;-60
2023/04/15 11:49:33;;;;;;;2.95;1.50;;;;;;;14.82;36.93;99284.34;10472559;28;20060;-60
2023/04/15 11:54:36;;;;;;;2.47;1.42;;;;;;;14.77;37.29;99291.81;10467218;28;20048;-60
2023/04/15 11:59:42;;;;;;;2.67;1.70;;;;;;;14.49;37.78;99290.72;10458877;28;20041;-60
2023/04/15 12:04:46;;;;;;;2.80;1.50;;;;;;;14.61;38.57;99298.53;10471822;28;20049;-60
2023/04/15 12:09:55;;;;;;;2.83;1.50;;;;;;;14.59;37.90;99304.75;10468698;28;20040;-60
2023/04/15 12:14:58;;;;;;;2.85;1.70;;;;;;;14.39;38.53;99313.50;10465311;28;20044;-59
2023/04/15 12:20:00;;;;;;;3.80;1.63;;;;;;;14.54;38.54;99314.03;10466654;28;20158;-59
2023/04/15 12:25:03;;;;;;;2.33;1.55;;;;;;;14.72;38.44;99322.97;10466034;28;20043;-60
2023/04/15 12:30:06;;;;;;;2.50;1.50;;;;;;;14.78;38.29;99324.25;10469312;28;20074;-59
2023/04/15 12:35:08;;;;;;;1.98;1.50;;;;;;;14.52;38.76;99327.31;10469369;28;20037;-59
2023/04/15 12:40:10;;;;;;;3.30;1.70;;;;;;;14.07;40.24;99346.09;10484466;28;20067;-60
2023/04/15 12:45:12;;;;;;;3.05;1.70;;;;;;;14.10;40.75;99344.06;10473789;28;20868;-59
2023/04/15 12:50:14;;;;;;;3.45;1.63;;;;;;;13.97;42.40;99363.59;10450557;28;20424;-59
2023/04/15 12:55:16;;;;;;;2.03;1.23;;;;;;;13.54;42.77;99356.59;10468043;28;20056;-59
2023/04/15 13:00:18;;;;;;;2.53;1.50;;;;;;;13.16;44.30;99377.19;10470907;28;20044;-59
2023/04/15 13:05:20;;;;;;;2.10;1.40;;;;;;;13.25;45.84;99383.50;10468092;28;20044;-59
2023/04/15 13:10:22;;;;;;;3.10;1.70;;;;;;;12.85;46.67;99389.25;10471268;28;20051;-59
2023/04/15 13:15:24;;;;;;;2.92;1.80;;;;;;;12.86;47.08;99393.53;10470525;28;20060;-60
2023/04/15 13:20:26;;;;;;;3.20;1.80;;;;;;;12.68;48.18;99397.56;10464084;28;20045;-60
2023/04/15 13:25:28;;;;;;;3.78;2.20;;;;;;;12.46;48.82;99410.66;10472963;28;20132;-60
2023/04/15 13:30:30;;;;;;;3.88;2.28;;;;;;;12.40;49.34;99419.00;10469337;28;20051;-60
2023/04/15 13:35:32;;;;;;;3.30;2.40;;;;;;;12.46;50.67;99417.69;10471823;28;20052;-60
2023/04/15 13:40:34;;;;;;;4.20;3.40;;;;;;;12.26;51.15;99434.88;10474590;28;20067;-59
2023/04/15 13:45:36;;;;;;;5.60;4.05;;;;;;;11.61;52.53;99450.19;10484144;28;20071;-60
2023/04/15 13:50:38;;;;;;;5.57;3.88;;;;;;;11.67;52.80;99448.91;10475977;28;20071;-60
2023/04/15 13:55:42;;;;;;;4.72;3.67;;;;;;;11.71;53.01;99459.06;10513147;28;20416;-59
2023/04/15 14:00:44;;;;;;;5.72;4.30;;;;;;;11.72;53.40;99465.94;10476812;28;20082;-59
2023/04/15 14:05:46;;;;;;;5.60;4.60;;;;;;;11.74;54.01;99473.72;10477857;28;20048;-60
2023/04/15 14:10:48;;;;;;;6.63;5.13;;;;;;;11.47;54.75;99480.91;10480476;28;20342;-60
2023/04/15 14:15:50;;;;;;;5.40;4.40;;;;;;;11.27;54.83;99487.53;10449174;28;20044;-60
2023/04/15 14:20:52;;;;;;;8.27;5.70;;;;;;;10.99;56.08;99491.19;10450003;28;20048;-60
2023/04/15 14:25:54;;;;;;;7.05;5.30;;;;;;;10.90;56.88;99501.44;10471296;28;20118;-60
2023/04/15 14:30:56;;;;;;;6.57;5.15;;;;;;;11.20;56.75;99499.38;10469264;28;20052;-60
2023/04/15 14:35:58;;;;;;;5.68;4.40;;;;;;;11.06;56.13;99505.56;10472008;28;20440;-60
2023/04/15 14:40:59;;;;;;;6.93;5.70;;;;;;;10.84;57.00;99523.63;10469820;28;20047;-60
2023/04/15 14:46:01;;;;;;;6.85;6.05;;;;;;;10.77;57.59;99519.72;10473794;28;20495;-60
2023/04/15 14:51:04;;;;;;;7.85;5.95;;;;;;;10.68;57.12;99519.53;10428342;28;20057;-60
2023/04/15 14:56:06;;;;;;;8.55;7.63;;;;;;;10.49;58.12;99527.75;10433641;28;20048;-60
2023/04/15 15:01:09;;;;;;;8.45;6.80;;;;;;;10.64;57.99;99528.50;10425860;28;20318;-60
2023/04/15 15:06:11;;;;;;;7.30;6.25;;;;;;;10.58;57.98;99539.38;10429580;28;20044;-60
2023/04/15 15:11:12;;;;;;;7.13;6.40;;;;;;;10.79;58.00;99537.94;10428599;28;20041;-61
2023/04/15 15:16:14;;;;;;;6.85;6.00;;;;;;;10.92;57.44;99544.88;10428940;28;20049;-61
2023/04/15 15:21:16;;;;;;;6.97;6.20;;;;;;;11.03;57.97;99554.63;10430315;28;20787;-61
2023/04/15 15:26:18;;;;;;;7.20;6.07;;;;;;;10.93;57.72;99553.56;10418016;28;20045;-60
2023/04/15 15:31:20;;;;;;;6.72;5.80;;;;;;;10.78;58.19;99555.44;10420649;28;20053;-60
2023/04/15 15:36:22;;;;;;;8.27;6.20;;;;;;;10.75;58.51;99573.09;10423246;28;20128;-60
2023/04/15 15:41:24;;;;;;;6.63;5.50;;;;;;;10.49;59.02;99572.19;10423905;28;20444;-60
2023/04/15 15:46:30;;;;;;;7.70;5.88;;;;;;;10.36;59.54;99581.75;10428120;28;20609;-60
2023/04/15 15:51:32;;;;;;;7.00;5.35;;;;;;;10.15;58.87;99577.91;10452027;28;20516;-60
2023/04/15 15:56:37;;;;;;;6.97;5.40;;;;;;;10.07;59.85;99590.63;10467300;28;20048;-60
2023/04/15 16:01:39;;;;;;;8.32;6.28;;;;;;;10.12;60.01;99593.75;10467740;28;20076;-60
2023/04/15 16:06:43;;;;;;;6.57;5.47;;;;;;;10.21;59.13;99601.88;10469017;28;20086;-60
2023/04/15 16:11:45;;;;;;;8.75;5.60;;;;;;;9.96;60.11;99613.94;10471517;28;20172;-61
2023/04/15 16:16:47;;;;;;;7.47;5.72;;;;;;;9.85;60.22;99619.00;10470072;28;20051;-61
2023/04/15 16:21:49;;;;;;;7.75;6.20;;;;;;;9.79;60.80;99624.63;10468346;28;20702;-60
2023/04/15 16:26:50;;;;;;;8.35;5.88;;;;;;;9.65;61.09;99635.84;10466737;28;20053;-60
2023/04/15 16:31:54;;;;;;;6.88;5.80;;;;;;;9.58;61.71;99637.97;10469760;28;20043;-60
2023/04/15 16:36:56;;;;;;;6.78;5.97;;;;;;;9.54;61.77;99640.91;10468214;28;20510;-60
2023/04/15 16:41:58;;;;;;;7.43;5.70;;;;;;;9.69;61.30;99644.41;10453285;28;20234;-61
2023/04/15 16:47:01;;;;;;;6.88;5.40;;;;;;;9.61;61.38;99643.03;10483069;28;20076;-60
2023/04/15 16:52:03;;;;;;;7.05;6.35;;;;;;;9.61;61.64;99653.47;10490053;28;20082;-60
2023/04/15 16:57:05;;;;;;;9.32;7.20;;;;;;;9.49;62.31;99661.19;10499636;28;20051;-61
2023/04/15 17:02:11;;;;;;;7.38;6.38;;;;;;;9.24;62.73;99666.22;10506266;28;21491;-61
2023/04/15 17:07:13;;;;;;;8.00;6.95;;;;;;;9.23;62.77;99669.72;10507762;28;20418;-60
2023/04/15 17:12:14;;;;;;;8.00;6.40;;;;;;;9.31;62.31;99673.56;10513336;28;20126;-60
2023/04/15 17:17:16;;;;;;;7.20;6.22;;;;;;;9.40;62.34;99675.63;10475335;28;20048;-60
2023/04/15 17:22:18;;;;;;;6.80;6.10;;;;;;;9.28;62.22;99683.38;10473995;28;20075;-60
2023/04/15 17:27:20;;;;;;;7.22;6.18;;;;;;;9.40;62.09;99693.09;10475432;28;20062;-60
2023/04/15 17:32:23;;;;;;;7.40;6.03;;;;;;;9.38;62.22;99698.38;10476104;28;20055;-60
2023/04/15 17:37:25;;;;;;;6.93;5.55;;;;;;;9.10;62.82;99719.16;10472590;28;20502;-60
2023/04/15 17:42:27;;;;;;;8.27;6.57;;;;;;;9.08;63.09;99710.59;10472869;28;20135;-60
2023/04/15 17:47:29;;;;;;;8.85;7.10;;;;;;;9.24;63.03;99714.00;10466576;28;20059;-62
2023/04/15 17:52:33;;;;;;;11.18;8.45;;;;;;;9.02;63.70;99718.75;10466712;28;20480;-60
2023/04/15 17:57:35;;;;;;;8.95;7.32;;;;;;;9.03;63.51;99728.28;10467059;28;20048;-61
2023/04/15 18:02:38;;;;;;;9.90;7.95;;;;;;;9.07;63.38;99734.16;10467113;28;20052;-60
2023/04/15 18:07:41;;;;;;;10.43;8.18;;;;;;;9.12;63.44;99746.00;10466315;28;20041;-60
2023/04/15 18:12:43;;;;;;;7.50;6.70;;;;;;;9.16;63.56;99746.66;10468860;28;20058;-61
2023/04/15 18:17:45;;;;;;;6.97;6.22;;;;;;;9.11;63.41;99766.97;10466926;28;20048;-61
2023/04/15 18:22:46;;;;;;;8.00;6.30;;;;;;;9.06;63.56;99764.63;10469565;28;20695;-62
2023/04/15 18:27:49;;;;;;;6.65;5.32;;;;;;;9.08;63.26;99774.94;10469514;28;20051;-61
2023/04/15 18:32:50;;;;;;;6.68;5.47;;;;;;;9.13;63.19;99788.59;10471937;28;20045;-61
2023/04/15 18:37:52;;;;;;;6.97;5.15;;;;;;;9.14;62.95;99796.31;10467103;28;20037;-62
2023/04/15 18:42:54;;;;;;;7.15;6.20;;;;;;;9.22;63.15;99804.56;10455285;28;20401;-61
2023/04/15 18:47:56;;;;;;;6.05;4.70;;;;;;;9.16;62.52;99815.34;10471232;28;20041;-61
2023/04/15 18:52:58;;;;;;;5.90;5.05;;;;;;;9.22;62.76;99827.22;10467105;28;20317;-61
2023/04/15 18:58:00;;;;;;;6.05;5.03;;;;;;;9.27;62.58;99833.88;10468308;28;20066;-61
2023/04/15 19:03:10;;;;;;;6.53;5.18;;;;;;;9.23;62.58;99848.00;10470378;28;20322;-61
2023/04/15 19:08:12;;;;;;;6.50;5.70;;;;;;;9.27;62.57;99854.75;10474468;28;20048;-61
2023/04/15 19:13:14;;;;;;;6.50;5.60;;;;;;;9.33;62.55;99862.22;10473058;28;20316;-61
2023/04/15 19:18:20;;;;;;;6.70;4.80;;;;;;;9.18;62.11;99863.06;10470608;28;20527;-61
2023/04/15 19:23:22;;;;;;;7.50;5.32;;;;;;;9.12;62.79;99871.22;10451751;28;20051;-61
2023/04/15 19:28:26;;;;;;;6.18;5.40;;;;;;;9.25;63.30;99874.00;10464947;28;20041;-61
2023/04/15 19:33:30;;;;;;;7.82;4.80;;;;;;;9.42;62.77;99876.53;10482407;28;20102;-61
2023/04/15 19:38:34;;;;;;;6.22;4.60;;;;;;;9.36;62.57;99887.31;10469013;28;20159;-61
2023/04/15 19:43:36;;;;;;;6.20;4.90;;;;;;;9.37;62.43;99889.84;10469456;28;20131;-61
2023/04/15 19:48:39;;;;;;;5.32;3.97;;;;;;;9.35;62.27;99898.69;10464626;28;20059;-61
2023/04/15 19:53:41;;;;;;;5.45;4.57;;;;;;;9.35;62.14;99903.91;10447639;28;20514;-62
2023/04/15 19:58:45;;;;;;;5.82;4.53;;;;;;;9.49;62.26;99899.59;10478889;28;20048;-62
2023/04/15 20:03:47;;;;;;;6.40;4.70;;;;;;;9.47;62.12;99901.47;10447458;28;20064;-61
2023/04/15 20:08:50;;;;;;;6.10;4.75;;;;;;;9.48;62.37;99904.91;10468436;28;20087;-61
2023/04/15 20:13:53;;;;;;;6.05;4.80;;;;;;;9.34;62.51;99913.50;10469566;28;20406;-62
2023/04/15 20:18:54;;;;;;;5.85;4.70;;;;;;;9.20;63.19;99923.03;10470047;28;20774;-62
2023/04/15 20:23:56;;;;;;;5.45;4.30;;;;;;;9.19;63.04;99930.00;10470575;28;20044;-61
2023/04/15 20:28:59;;;;;;;5.55;4.32;;;;;;;9.19;62.85;99934.38;10472573;28;20051;-62
2023/04/15 20:34:01;;;;;;;6.38;4.80;;;;;;;9.17;63.02;99941.44;10468533;28;20041;-62
2023/04/15 20:39:02;;;;;;;6.13;4.60;;;;;;;9.17;62.94;99936.22;10470057;28;20044;-62
2023/04/15 20:44:05;;;;;;;5.93;4.50;;;;;;;9.07;63.34;99938.47;10468929;28;20411;-62
2023/04/15 20:49:06;;;;;;;6.72;4.60;;;;;;;9.18;63.12;99937.91;10457862;28;20334;-62
2023/04/15 20:54:08;;;;;;;6.25;4.65;;;;;;;9.16;63.14;99940.59;10470283;28;20492;-61
2023/04/15 20:59:10;;;;;;;6.97;4.97;;;;;;;9.18;63.07;99938.72;10469623;28;20094;-62
2023/04/15 21:04:12;;;;;;;6.60;4.78;;;;;;;9.14;62.80;99945.03;10454690;28;20036;-62
2023/04/15 21:09:14;;;;;;;5.78;4.50;;;;;;;9.02;62.80;99953.53;10467742;28;20048;-61
2023/04/15 21:14:15;;;;;;;7.45;5.28;;;;;;;9.06;62.88;99949.84;10468485;28;20257;-62
2023/04/15 21:19:17;;;;;;;7.25;5.50;;;;;;;9.10;62.81;99945.28;10470076;28;20051;-61
2023/04/15 21:24:19;;;;;;;6.88;5.18;;;;;;;8.97;63.13;99936.44;10469970;28;20036;-62
2023/04/15 21:29:21;;;;;;;6.97;5.57;;;;;;;8.83;63.17;99958.88;10470276;28;20036;-61
2023/04/15 21:34:22;;;;;;;6.65;5.78;;;;;;;8.91;63.12;99945.44;10470406;28;20041;-62
2023/04/15 21:39:24;;;;;;;7.20;5.75;;;;;;;8.96;62.85;99958.22;10468518;28;20051;-62
2023/04/15 21:44:26;;;;;;;8.30;6.40;;;;;;;9.04;62.82;99976.91;10467466;28;20046;-62
2023/04/15 21:49:28;;;;;;;7.68;5.78;;;;;;;9.00;62.88;99985.81;10467714;28;20053;-62
2023/04/15 21:54:30;;;;;;;8.63;6.35;;;;;;;9.09;62.68;99994.03;10471198;28;20044;-61
2023/04/15 21:59:32;;;;;;;7.85;5.57;;;;;;;9.00;62.68;99991.88;10473343;28;20036;-61
2023/04/15 22:04:33;;;;;;;9.27;5.90;;;;;;;8.88;63.19;99983.84;10480184;28;20045;-61
2023/04/15 22:09:35;;;;;;;7.82;5.70;;;;;;;8.84;63.06;99993.63;10473495;28;20067;-61
2023/04/15 22:14:37;;;;;;;7.35;5.55;;;;;;;8.97;63.06;100004.25;10473170;28;20143;-61
2023/04/15 22:19:39;;;;;;;9.35;6.13;;;;;;;8.81;63.51;100002.44;10476783;28;20504;-60
2023/04/15 22:24:41;;;;;;;10.85;6.75;;;;;;;8.92;63.19;100009.72;10476386;28;20411;-61
2023/04/15 22:29:42;;;;;;;7.45;6.03;;;;;;;8.67;63.70;100007.50;10474664;28;20045;-61
2023/04/15 22:34:44;;;;;;;8.52;6.15;;;;;;;8.77;63.47;100010.50;10481368;28;20062;-61
2023/04/15 22:39:46;;;;;;;11.23;7.07;;;;;;;8.73;63.76;100009.81;10483024;28;20280;-61
2023/04/15 22:44:48;;;;;;;8.07;6.47;;;;;;;8.71;63.85;100021.22;10473091;28;20052;-61
2023/04/15 22:49:50;;;;;;;11.20;6.93;;;;;;;8.62;64.01;100025.16;10474712;28;20062;-61
2023/04/15 22:54:52;;;;;;;9.23;7.38;;;;;;;8.71;63.82;100029.91;10474788;28;20129;-61
2023/04/15 22:59:54;;;;;;;9.00;7.00;;;;;;;8.84;63.47;100033.59;10473967;28;20053;-61
2023/04/15 23:04:56;;;;;;;9.68;7.47;;;;;;;8.87;63.60;100050.00;10472776;28;20618;-61
2023/04/15 23:09:59;;;;;;;9.98;7.70;;;;;;;8.87;63.44;100058.66;10469103;28;20079;-61
2023/04/15 23:15:02;;;;;;;9.25;6.68;;;;;;;8.86;62.92;100056.97;10476529;28;20560;-61
2023/04/15 23:20:05;;;;;;;10.20;7.60;;;;;;;8.78;63.20;100073.00;10471844;28;20042;-61
2023/04/15 23:25:07;;;;;;;9.07;7.43;;;;;;;8.78;63.51;100066.94;10476434;28;20492;-61
2023/04/15 23:30:09;;;;;;;10.43;7.30;;;;;;;8.89;63.37;100069.00;10453877;28;20047;-61
2023/04/15 23:35:11;;;;;;;10.27;7.90;;;;;;;8.88;63.28;100070.78;10453798;28;20139;-61